sensor_id;sensor_type;location;lat;lon;timestamp;P1;durP1;ratioP1;P2;durP2;ratioP2
35188;SDS011;21762;54.480;18.556;2022-08-03T00:01:33;5.35;;;1.95;;
35188;SDS011;21762;54.480;18.556;2022-08-03T00:04:03;7.07;;;2.05;;
35188;SDS011;21762;54.480;18.556;2022-08-03T00:06:32;7.28;;;1.58;;
35188;SDS011;21762;54.480;18.556;2022-08-03T00:09:02;8.35;;;1.75;;
35188;SDS011;21762;54.480;18.556;2022-08-03T00:11:31;9.63;;;1.65;;
35188;SDS011;21762;54.480;18.556;2022-08-03T00:14:00;11.43;;;3.70;;
35188;SDS011;21762;54.480;18.556;2022-08-03T00:16:28;4.20;;;1.70;;
35188;SDS011;21762;54.480;18.556;2022-08-03T00:18:56;5.43;;;1.40;;
35188;SDS011;21762;54.480;18.556;2022-08-03T00:21:26;7.50;;;1.88;;
35188;SDS011;21762;54.480;18.556;2022-08-03T00:23:54;11.45;;;2.35;;
35188;SDS011;21762;54.480;18.556;2022-08-03T00:26:22;4.63;;;1.60;;
35188;SDS011;21762;54.480;18.556;2022-08-03T00:28:50;5.10;;;1.60;;
35188;SDS011;21762;54.480;18.556;2022-08-03T00:31:18;4.40;;;1.63;;
35188;SDS011;21762;54.480;18.556;2022-08-03T00:33:47;5.07;;;1.20;;
35188;SDS011;21762;54.480;18.556;2022-08-03T00:36:15;8.77;;;3.28;;
35188;SDS011;21762;54.480;18.556;2022-08-03T00:38:44;6.78;;;1.60;;
35188;SDS011;21762;54.480;18.556;2022-08-03T00:41:12;3.20;;;1.35;;
35188;SDS011;21762;54.480;18.556;2022-08-03T00:43:41;4.75;;;1.60;;
35188;SDS011;21762;54.480;18.556;2022-08-03T00:46:10;8.27;;;1.73;;
35188;SDS011;21762;54.480;18.556;2022-08-03T00:48:40;10.93;;;3.33;;
35188;SDS011;21762;54.480;18.556;2022-08-03T00:51:08;5.13;;;1.55;;
35188;SDS011;21762;54.480;18.556;2022-08-03T00:53:36;4.95;;;1.67;;
35188;SDS011;21762;54.480;18.556;2022-08-03T00:56:06;10.20;;;1.35;;
35188;SDS011;21762;54.480;18.556;2022-08-03T00:58:34;9.10;;;1.65;;
35188;SDS011;21762;54.480;18.556;2022-08-03T01:01:02;9.38;;;1.70;;
35188;SDS011;21762;54.480;18.556;2022-08-03T01:03:32;5.38;;;1.45;;
35188;SDS011;21762;54.480;18.556;2022-08-03T01:06:03;5.72;;;1.70;;
35188;SDS011;21762;54.480;18.556;2022-08-03T01:08:38;7.03;;;1.40;;
35188;SDS011;21762;54.480;18.556;2022-08-03T01:11:14;4.18;;;1.55;;
35188;SDS011;21762;54.480;18.556;2022-08-03T01:13:47;9.75;;;1.40;;
35188;SDS011;21762;54.480;18.556;2022-08-03T01:16:22;9.02;;;1.73;;
35188;SDS011;21762;54.480;18.556;2022-08-03T01:18:54;6.88;;;1.75;;
35188;SDS011;21762;54.480;18.556;2022-08-03T01:21:28;4.95;;;1.55;;
35188;SDS011;21762;54.480;18.556;2022-08-03T01:24:03;7.15;;;1.63;;
35188;SDS011;21762;54.480;18.556;2022-08-03T01:26:41;11.45;;;1.60;;
35188;SDS011;21762;54.480;18.556;2022-08-03T01:29:30;5.60;;;1.48;;
35188;SDS011;21762;54.480;18.556;2022-08-03T01:32:07;11.30;;;1.80;;
35188;SDS011;21762;54.480;18.556;2022-08-03T01:34:40;11.43;;;2.65;;
35188;SDS011;21762;54.480;18.556;2022-08-03T01:37:10;7.72;;;1.30;;
35188;SDS011;21762;54.480;18.556;2022-08-03T01:39:39;6.85;;;1.42;;
35188;SDS011;21762;54.480;18.556;2022-08-03T01:42:08;5.60;;;1.85;;
35188;SDS011;21762;54.480;18.556;2022-08-03T01:44:40;4.57;;;1.50;;
35188;SDS011;21762;54.480;18.556;2022-08-03T01:47:09;7.93;;;1.92;;
35188;SDS011;21762;54.480;18.556;2022-08-03T01:49:39;7.45;;;1.77;;
35188;SDS011;21762;54.480;18.556;2022-08-03T01:52:10;2.15;;;1.40;;
35188;SDS011;21762;54.480;18.556;2022-08-03T01:54:41;5.93;;;1.65;;
35188;SDS011;21762;54.480;18.556;2022-08-03T01:57:10;8.70;;;1.58;;
35188;SDS011;21762;54.480;18.556;2022-08-03T01:59:41;8.10;;;1.65;;
35188;SDS011;21762;54.480;18.556;2022-08-03T02:02:11;7.32;;;1.75;;
35188;SDS011;21762;54.480;18.556;2022-08-03T02:04:40;7.32;;;1.38;;
35188;SDS011;21762;54.480;18.556;2022-08-03T02:07:09;7.30;;;1.45;;
35188;SDS011;21762;54.480;18.556;2022-08-03T02:09:38;9.13;;;1.90;;
35188;SDS011;21762;54.480;18.556;2022-08-03T02:12:07;11.68;;;2.03;;
35188;SDS011;21762;54.480;18.556;2022-08-03T02:14:36;9.02;;;1.77;;
35188;SDS011;21762;54.480;18.556;2022-08-03T02:17:07;6.35;;;1.80;;
35188;SDS011;21762;54.480;18.556;2022-08-03T02:19:36;6.32;;;1.63;;
35188;SDS011;21762;54.480;18.556;2022-08-03T02:22:04;6.43;;;2.00;;
35188;SDS011;21762;54.480;18.556;2022-08-03T02:24:36;3.88;;;1.50;;
35188;SDS011;21762;54.480;18.556;2022-08-03T02:27:04;7.63;;;1.60;;
35188;SDS011;21762;54.480;18.556;2022-08-03T02:29:40;6.30;;;1.60;;
35188;SDS011;21762;54.480;18.556;2022-08-03T02:32:11;6.45;;;1.88;;
35188;SDS011;21762;54.480;18.556;2022-08-03T02:34:41;6.60;;;1.90;;
35188;SDS011;21762;54.480;18.556;2022-08-03T02:37:12;7.45;;;2.17;;
35188;SDS011;21762;54.480;18.556;2022-08-03T02:39:41;6.93;;;2.20;;
35188;SDS011;21762;54.480;18.556;2022-08-03T02:42:11;7.30;;;2.25;;
35188;SDS011;21762;54.480;18.556;2022-08-03T02:44:41;5.78;;;1.90;;
35188;SDS011;21762;54.480;18.556;2022-08-03T02:49:42;6.07;;;2.03;;
35188;SDS011;21762;54.480;18.556;2022-08-03T02:52:11;7.55;;;2.15;;
35188;SDS011;21762;54.480;18.556;2022-08-03T02:54:40;12.65;;;2.10;;
35188;SDS011;21762;54.480;18.556;2022-08-03T02:57:08;7.45;;;2.10;;
35188;SDS011;21762;54.480;18.556;2022-08-03T02:59:37;5.88;;;1.50;;
35188;SDS011;21762;54.480;18.556;2022-08-03T03:02:05;5.97;;;1.88;;
35188;SDS011;21762;54.480;18.556;2022-08-03T03:04:35;6.55;;;2.05;;
35188;SDS011;21762;54.480;18.556;2022-08-03T03:07:04;7.22;;;1.92;;
35188;SDS011;21762;54.480;18.556;2022-08-03T03:09:32;5.63;;;2.03;;
35188;SDS011;21762;54.480;18.556;2022-08-03T03:12:00;5.15;;;1.70;;
35188;SDS011;21762;54.480;18.556;2022-08-03T03:14:29;6.90;;;1.95;;
35188;SDS011;21762;54.480;18.556;2022-08-03T03:16:58;4.28;;;1.67;;
35188;SDS011;21762;54.480;18.556;2022-08-03T03:19:26;5.25;;;1.70;;
35188;SDS011;21762;54.480;18.556;2022-08-03T03:21:57;6.78;;;1.95;;
35188;SDS011;21762;54.480;18.556;2022-08-03T03:24:26;9.27;;;2.15;;
35188;SDS011;21762;54.480;18.556;2022-08-03T03:26:54;5.82;;;1.92;;
35188;SDS011;21762;54.480;18.556;2022-08-03T03:29:23;8.77;;;1.80;;
35188;SDS011;21762;54.480;18.556;2022-08-03T03:31:51;9.13;;;2.15;;
35188;SDS011;21762;54.480;18.556;2022-08-03T03:34:19;11.68;;;1.90;;
35188;SDS011;21762;54.480;18.556;2022-08-03T03:36:48;4.40;;;1.45;;
35188;SDS011;21762;54.480;18.556;2022-08-03T03:39:17;8.82;;;2.10;;
35188;SDS011;21762;54.480;18.556;2022-08-03T03:41:45;8.30;;;2.92;;
35188;SDS011;21762;54.480;18.556;2022-08-03T03:44:14;8.30;;;2.15;;
35188;SDS011;21762;54.480;18.556;2022-08-03T03:46:42;8.73;;;2.55;;
35188;SDS011;21762;54.480;18.556;2022-08-03T03:49:11;9.02;;;2.13;;
35188;SDS011;21762;54.480;18.556;2022-08-03T03:51:39;4.65;;;2.08;;
35188;SDS011;21762;54.480;18.556;2022-08-03T03:54:07;9.10;;;2.40;;
35188;SDS011;21762;54.480;18.556;2022-08-03T03:56:36;10.38;;;2.13;;
35188;SDS011;21762;54.480;18.556;2022-08-03T03:59:05;4.65;;;1.98;;
35188;SDS011;21762;54.480;18.556;2022-08-03T04:01:33;7.55;;;2.00;;
35188;SDS011;21762;54.480;18.556;2022-08-03T04:04:01;5.13;;;2.00;;
35188;SDS011;21762;54.480;18.556;2022-08-03T04:06:50;9.48;;;2.53;;
35188;SDS011;21762;54.480;18.556;2022-08-03T04:09:35;6.65;;;2.20;;
35188;SDS011;21762;54.480;18.556;2022-08-03T04:12:24;5.78;;;1.80;;
35188;SDS011;21762;54.480;18.556;2022-08-03T04:14:53;8.20;;;2.30;;
35188;SDS011;21762;54.480;18.556;2022-08-03T04:17:23;7.50;;;1.90;;
35188;SDS011;21762;54.480;18.556;2022-08-03T04:19:52;6.50;;;1.80;;
35188;SDS011;21762;54.480;18.556;2022-08-03T04:22:23;9.27;;;2.25;;
35188;SDS011;21762;54.480;18.556;2022-08-03T04:24:58;5.55;;;1.92;;
35188;SDS011;21762;54.480;18.556;2022-08-03T04:27:32;6.03;;;2.30;;
35188;SDS011;21762;54.480;18.556;2022-08-03T04:30:03;9.20;;;2.53;;
35188;SDS011;21762;54.480;18.556;2022-08-03T04:32:33;7.63;;;2.30;;
35188;SDS011;21762;54.480;18.556;2022-08-03T04:35:02;6.63;;;2.13;;
35188;SDS011;21762;54.480;18.556;2022-08-03T04:37:32;8.20;;;2.40;;
35188;SDS011;21762;54.480;18.556;2022-08-03T04:40:08;11.57;;;2.80;;
35188;SDS011;21762;54.480;18.556;2022-08-03T04:42:39;11.80;;;3.20;;
35188;SDS011;21762;54.480;18.556;2022-08-03T04:45:10;4.90;;;2.20;;
35188;SDS011;21762;54.480;18.556;2022-08-03T04:47:39;5.32;;;1.73;;
35188;SDS011;21762;54.480;18.556;2022-08-03T04:50:08;4.03;;;1.70;;
35188;SDS011;21762;54.480;18.556;2022-08-03T04:52:39;9.50;;;2.00;;
35188;SDS011;21762;54.480;18.556;2022-08-03T04:55:08;10.57;;;2.45;;
35188;SDS011;21762;54.480;18.556;2022-08-03T04:57:36;11.57;;;2.67;;
35188;SDS011;21762;54.480;18.556;2022-08-03T05:00:06;5.68;;;1.98;;
35188;SDS011;21762;54.480;18.556;2022-08-03T05:02:35;9.88;;;2.05;;
35188;SDS011;21762;54.480;18.556;2022-08-03T05:05:03;8.38;;;2.10;;
35188;SDS011;21762;54.480;18.556;2022-08-03T05:07:32;8.52;;;1.85;;
35188;SDS011;21762;54.480;18.556;2022-08-03T05:10:00;4.63;;;1.92;;
35188;SDS011;21762;54.480;18.556;2022-08-03T05:12:29;14.20;;;2.08;;
35188;SDS011;21762;54.480;18.556;2022-08-03T05:14:58;8.70;;;2.17;;
35188;SDS011;21762;54.480;18.556;2022-08-03T05:17:28;9.48;;;2.20;;
35188;SDS011;21762;54.480;18.556;2022-08-03T05:19:56;6.65;;;2.10;;
35188;SDS011;21762;54.480;18.556;2022-08-03T05:22:24;6.90;;;2.33;;
35188;SDS011;21762;54.480;18.556;2022-08-03T05:24:53;6.30;;;1.85;;
35188;SDS011;21762;54.480;18.556;2022-08-03T05:27:21;9.45;;;1.63;;
35188;SDS011;21762;54.480;18.556;2022-08-03T05:29:49;8.55;;;2.10;;
35188;SDS011;21762;54.480;18.556;2022-08-03T05:32:17;5.32;;;1.63;;
35188;SDS011;21762;54.480;18.556;2022-08-03T05:34:47;7.93;;;2.30;;
35188;SDS011;21762;54.480;18.556;2022-08-03T05:37:15;6.95;;;1.67;;
35188;SDS011;21762;54.480;18.556;2022-08-03T05:39:43;10.07;;;2.42;;
35188;SDS011;21762;54.480;18.556;2022-08-03T05:42:13;7.05;;;2.03;;
35188;SDS011;21762;54.480;18.556;2022-08-03T05:44:42;9.82;;;2.20;;
35188;SDS011;21762;54.480;18.556;2022-08-03T05:47:10;4.65;;;1.77;;
35188;SDS011;21762;54.480;18.556;2022-08-03T05:49:38;4.80;;;1.83;;
35188;SDS011;21762;54.480;18.556;2022-08-03T05:52:08;10.50;;;2.13;;
35188;SDS011;21762;54.480;18.556;2022-08-03T05:54:36;11.70;;;2.13;;
35188;SDS011;21762;54.480;18.556;2022-08-03T05:57:04;11.20;;;1.88;;
35188;SDS011;21762;54.480;18.556;2022-08-03T05:59:32;6.88;;;1.80;;
35188;SDS011;21762;54.480;18.556;2022-08-03T06:02:03;8.93;;;2.13;;
35188;SDS011;21762;54.480;18.556;2022-08-03T06:04:33;9.68;;;2.38;;
35188;SDS011;21762;54.480;18.556;2022-08-03T06:07:02;5.93;;;2.53;;
35188;SDS011;21762;54.480;18.556;2022-08-03T06:09:31;6.57;;;2.38;;
35188;SDS011;21762;54.480;18.556;2022-08-03T06:12:00;11.05;;;2.33;;
35188;SDS011;21762;54.480;18.556;2022-08-03T06:14:28;8.65;;;2.17;;
35188;SDS011;21762;54.480;18.556;2022-08-03T06:16:56;8.13;;;1.85;;
35188;SDS011;21762;54.480;18.556;2022-08-03T06:19:24;7.82;;;1.73;;
35188;SDS011;21762;54.480;18.556;2022-08-03T06:21:53;12.43;;;2.03;;
35188;SDS011;21762;54.480;18.556;2022-08-03T06:24:21;12.02;;;2.58;;
35188;SDS011;21762;54.480;18.556;2022-08-03T06:26:50;10.13;;;2.05;;
35188;SDS011;21762;54.480;18.556;2022-08-03T06:29:18;7.28;;;1.90;;
35188;SDS011;21762;54.480;18.556;2022-08-03T06:31:47;16.45;;;2.40;;
35188;SDS011;21762;54.480;18.556;2022-08-03T06:34:15;18.02;;;2.65;;
35188;SDS011;21762;54.480;18.556;2022-08-03T06:36:43;9.60;;;2.40;;
35188;SDS011;21762;54.480;18.556;2022-08-03T06:39:14;11.15;;;2.75;;
35188;SDS011;21762;54.480;18.556;2022-08-03T06:41:43;11.43;;;2.88;;
35188;SDS011;21762;54.480;18.556;2022-08-03T06:44:13;12.60;;;2.63;;
35188;SDS011;21762;54.480;18.556;2022-08-03T06:46:41;10.73;;;2.90;;
35188;SDS011;21762;54.480;18.556;2022-08-03T06:49:09;15.75;;;3.38;;
35188;SDS011;21762;54.480;18.556;2022-08-03T06:51:37;15.43;;;3.60;;
35188;SDS011;21762;54.480;18.556;2022-08-03T06:54:06;11.77;;;4.00;;
35188;SDS011;21762;54.480;18.556;2022-08-03T06:56:34;29.23;;;5.07;;
35188;SDS011;21762;54.480;18.556;2022-08-03T06:59:03;16.70;;;4.53;;
35188;SDS011;21762;54.480;18.556;2022-08-03T07:01:32;21.35;;;4.93;;
35188;SDS011;21762;54.480;18.556;2022-08-03T07:04:00;26.08;;;5.32;;
35188;SDS011;21762;54.480;18.556;2022-08-03T07:06:29;19.23;;;5.47;;
35188;SDS011;21762;54.480;18.556;2022-08-03T07:08:57;31.30;;;5.28;;
35188;SDS011;21762;54.480;18.556;2022-08-03T07:11:25;27.58;;;4.18;;
35188;SDS011;21762;54.480;18.556;2022-08-03T07:13:54;27.30;;;4.93;;
35188;SDS011;21762;54.480;18.556;2022-08-03T07:16:22;24.25;;;6.20;;
35188;SDS011;21762;54.480;18.556;2022-08-03T07:18:52;21.83;;;4.07;;
35188;SDS011;21762;54.480;18.556;2022-08-03T07:21:20;18.65;;;4.68;;
35188;SDS011;21762;54.480;18.556;2022-08-03T07:23:48;14.10;;;4.57;;
35188;SDS011;21762;54.480;18.556;2022-08-03T07:26:16;26.27;;;4.57;;
35188;SDS011;21762;54.480;18.556;2022-08-03T07:28:44;40.28;;;5.88;;
35188;SDS011;21762;54.480;18.556;2022-08-03T07:31:12;34.90;;;8.00;;
35188;SDS011;21762;54.480;18.556;2022-08-03T07:33:41;32.83;;;6.78;;
35188;SDS011;21762;54.480;18.556;2022-08-03T07:36:10;31.02;;;9.07;;
35188;SDS011;21762;54.480;18.556;2022-08-03T07:38:39;27.45;;;7.25;;
35188;SDS011;21762;54.480;18.556;2022-08-03T07:41:07;29.23;;;6.38;;
35188;SDS011;21762;54.480;18.556;2022-08-03T07:43:35;28.40;;;7.88;;
35188;SDS011;21762;54.480;18.556;2022-08-03T07:46:03;21.42;;;6.70;;
35188;SDS011;21762;54.480;18.556;2022-08-03T07:48:31;21.13;;;6.40;;
35188;SDS011;21762;54.480;18.556;2022-08-03T07:51:00;28.40;;;6.57;;
35188;SDS011;21762;54.480;18.556;2022-08-03T07:53:30;22.27;;;6.53;;
35188;SDS011;21762;54.480;18.556;2022-08-03T07:55:58;26.33;;;5.47;;
35188;SDS011;21762;54.480;18.556;2022-08-03T07:58:26;24.70;;;6.63;;
35188;SDS011;21762;54.480;18.556;2022-08-03T08:00:54;15.93;;;4.13;;
35188;SDS011;21762;54.480;18.556;2022-08-03T08:03:23;13.57;;;4.93;;
35188;SDS011;21762;54.480;18.556;2022-08-03T08:05:52;23.15;;;5.28;;
35188;SDS011;21762;54.480;18.556;2022-08-03T08:08:20;26.75;;;7.07;;
35188;SDS011;21762;54.480;18.556;2022-08-03T08:10:50;27.02;;;5.13;;
35188;SDS011;21762;54.480;18.556;2022-08-03T08:13:18;18.90;;;4.07;;
35188;SDS011;21762;54.480;18.556;2022-08-03T08:15:46;20.65;;;7.45;;
35188;SDS011;21762;54.480;18.556;2022-08-03T08:18:15;20.63;;;5.43;;
35188;SDS011;21762;54.480;18.556;2022-08-03T08:20:43;15.38;;;4.13;;
35188;SDS011;21762;54.480;18.556;2022-08-03T08:23:13;26.83;;;4.75;;
35188;SDS011;21762;54.480;18.556;2022-08-03T08:25:41;19.73;;;4.25;;
35188;SDS011;21762;54.480;18.556;2022-08-03T08:28:10;18.67;;;5.25;;
35188;SDS011;21762;54.480;18.556;2022-08-03T08:30:39;19.15;;;4.93;;
35188;SDS011;21762;54.480;18.556;2022-08-03T08:33:07;18.52;;;5.18;;
35188;SDS011;21762;54.480;18.556;2022-08-03T08:35:41;18.95;;;6.15;;
35188;SDS011;21762;54.480;18.556;2022-08-03T08:38:09;16.25;;;5.35;;
35188;SDS011;21762;54.480;18.556;2022-08-03T08:40:37;25.90;;;5.38;;
35188;SDS011;21762;54.480;18.556;2022-08-03T08:43:06;17.98;;;4.50;;
35188;SDS011;21762;54.480;18.556;2022-08-03T08:45:35;19.60;;;5.07;;
35188;SDS011;21762;54.480;18.556;2022-08-03T08:48:04;12.73;;;3.97;;
35188;SDS011;21762;54.480;18.556;2022-08-03T08:50:33;22.83;;;5.60;;
35188;SDS011;21762;54.480;18.556;2022-08-03T08:53:02;15.27;;;4.15;;
35188;SDS011;21762;54.480;18.556;2022-08-03T08:55:35;17.95;;;4.15;;
35188;SDS011;21762;54.480;18.556;2022-08-03T08:58:04;16.05;;;3.40;;
35188;SDS011;21762;54.480;18.556;2022-08-03T09:00:37;13.35;;;3.10;;
35188;SDS011;21762;54.480;18.556;2022-08-03T09:03:06;15.85;;;3.17;;
35188;SDS011;21762;54.480;18.556;2022-08-03T09:05:34;11.63;;;3.45;;
35188;SDS011;21762;54.480;18.556;2022-08-03T09:08:20;11.25;;;3.58;;
35188;SDS011;21762;54.480;18.556;2022-08-03T09:10:48;11.90;;;3.42;;
35188;SDS011;21762;54.480;18.556;2022-08-03T09:13:17;15.75;;;3.65;;
35188;SDS011;21762;54.480;18.556;2022-08-03T09:15:47;8.93;;;3.20;;
35188;SDS011;21762;54.480;18.556;2022-08-03T09:18:22;13.30;;;3.30;;
35188;SDS011;21762;54.480;18.556;2022-08-03T09:20:55;4.78;;;2.58;;
35188;SDS011;21762;54.480;18.556;2022-08-03T09:23:50;11.55;;;3.15;;
35188;SDS011;21762;54.480;18.556;2022-08-03T09:26:27;8.90;;;2.53;;
35188;SDS011;21762;54.480;18.556;2022-08-03T09:28:57;10.13;;;3.15;;
35188;SDS011;21762;54.480;18.556;2022-08-03T09:31:31;8.27;;;3.10;;
35188;SDS011;21762;54.480;18.556;2022-08-03T09:34:01;6.80;;;3.10;;
35188;SDS011;21762;54.480;18.556;2022-08-03T09:36:37;9.88;;;4.20;;
35188;SDS011;21762;54.480;18.556;2022-08-03T09:39:07;12.93;;;2.90;;
35188;SDS011;21762;54.480;18.556;2022-08-03T09:41:37;9.25;;;2.65;;
35188;SDS011;21762;54.480;18.556;2022-08-03T09:44:06;6.45;;;2.65;;
35188;SDS011;21762;54.480;18.556;2022-08-03T09:46:49;11.73;;;3.63;;
35188;SDS011;21762;54.480;18.556;2022-08-03T09:49:18;8.75;;;3.13;;
35188;SDS011;21762;54.480;18.556;2022-08-03T09:51:46;6.43;;;2.80;;
35188;SDS011;21762;54.480;18.556;2022-08-03T09:54:24;6.38;;;2.70;;
35188;SDS011;21762;54.480;18.556;2022-08-03T09:56:53;6.95;;;3.45;;
35188;SDS011;21762;54.480;18.556;2022-08-03T09:59:22;6.50;;;3.47;;
35188;SDS011;21762;54.480;18.556;2022-08-03T10:01:52;10.57;;;2.78;;
35188;SDS011;21762;54.480;18.556;2022-08-03T10:04:20;10.50;;;2.40;;
35188;SDS011;21762;54.480;18.556;2022-08-03T10:07:01;5.78;;;2.40;;
35188;SDS011;21762;54.480;18.556;2022-08-03T10:09:32;12.43;;;2.22;;
35188;SDS011;21762;54.480;18.556;2022-08-03T10:12:07;5.13;;;1.67;;
35188;SDS011;21762;54.480;18.556;2022-08-03T10:14:36;8.65;;;1.70;;
35188;SDS011;21762;54.480;18.556;2022-08-03T10:17:06;4.95;;;2.28;;
35188;SDS011;21762;54.480;18.556;2022-08-03T10:19:36;3.40;;;1.48;;
35188;SDS011;21762;54.480;18.556;2022-08-03T10:22:06;6.97;;;1.83;;
35188;SDS011;21762;54.480;18.556;2022-08-03T10:24:37;14.55;;;1.60;;
35188;SDS011;21762;54.480;18.556;2022-08-03T10:27:07;5.43;;;1.80;;
35188;SDS011;21762;54.480;18.556;2022-08-03T10:29:37;5.55;;;1.92;;
35188;SDS011;21762;54.480;18.556;2022-08-03T10:32:09;6.72;;;1.75;;
35188;SDS011;21762;54.480;18.556;2022-08-03T10:34:41;6.85;;;1.52;;
35188;SDS011;21762;54.480;18.556;2022-08-03T10:37:10;5.65;;;1.90;;
35188;SDS011;21762;54.480;18.556;2022-08-03T10:39:39;5.40;;;1.67;;
35188;SDS011;21762;54.480;18.556;2022-08-03T10:42:22;2.72;;;1.50;;
35188;SDS011;21762;54.480;18.556;2022-08-03T10:44:52;4.15;;;1.52;;
35188;SDS011;21762;54.480;18.556;2022-08-03T10:49:52;5.68;;;2.00;;
35188;SDS011;21762;54.480;18.556;2022-08-03T10:52:21;5.93;;;1.75;;
35188;SDS011;21762;54.480;18.556;2022-08-03T10:54:49;3.15;;;1.63;;
35188;SDS011;21762;54.480;18.556;2022-08-03T10:57:41;7.55;;;1.55;;
35188;SDS011;21762;54.480;18.556;2022-08-03T11:00:10;5.03;;;2.33;;
35188;SDS011;21762;54.480;18.556;2022-08-03T11:05:40;8.82;;;1.70;;
35188;SDS011;21762;54.480;18.556;2022-08-03T11:08:20;8.93;;;2.35;;
35188;SDS011;21762;54.480;18.556;2022-08-03T11:10:50;8.25;;;2.10;;
35188;SDS011;21762;54.480;18.556;2022-08-03T11:13:19;6.95;;;2.47;;
35188;SDS011;21762;54.480;18.556;2022-08-03T11:15:49;4.68;;;1.70;;
35188;SDS011;21762;54.480;18.556;2022-08-03T11:18:20;7.20;;;1.90;;
35188;SDS011;21762;54.480;18.556;2022-08-03T11:20:49;3.50;;;1.40;;
35188;SDS011;21762;54.480;18.556;2022-08-03T11:23:19;5.20;;;2.10;;
35188;SDS011;21762;54.480;18.556;2022-08-03T11:28:35;4.00;;;1.90;;
35188;SDS011;21762;54.480;18.556;2022-08-03T11:34:24;8.55;;;2.83;;
35188;SDS011;21762;54.480;18.556;2022-08-03T11:39:50;5.72;;;2.55;;
35188;SDS011;21762;54.480;18.556;2022-08-03T11:42:39;13.13;;;2.72;;
35188;SDS011;21762;54.480;18.556;2022-08-03T11:45:09;12.38;;;2.80;;
35188;SDS011;21762;54.480;18.556;2022-08-03T11:47:38;8.15;;;3.08;;
35188;SDS011;21762;54.480;18.556;2022-08-03T11:50:08;7.10;;;2.90;;
35188;SDS011;21762;54.480;18.556;2022-08-03T11:52:38;7.97;;;2.85;;
35188;SDS011;21762;54.480;18.556;2022-08-03T11:55:08;6.78;;;3.30;;
35188;SDS011;21762;54.480;18.556;2022-08-03T11:57:40;6.10;;;2.88;;
35188;SDS011;21762;54.480;18.556;2022-08-03T12:00:18;7.15;;;4.10;;
35188;SDS011;21762;54.480;18.556;2022-08-03T12:02:58;7.35;;;3.17;;
35188;SDS011;21762;54.480;18.556;2022-08-03T12:05:36;8.50;;;3.30;;
35188;SDS011;21762;54.480;18.556;2022-08-03T12:10:38;6.95;;;3.17;;
35188;SDS011;21762;54.480;18.556;2022-08-03T12:13:07;7.85;;;3.47;;
35188;SDS011;21762;54.480;18.556;2022-08-03T12:15:36;6.43;;;3.00;;
35188;SDS011;21762;54.480;18.556;2022-08-03T12:18:11;11.07;;;2.97;;
35188;SDS011;21762;54.480;18.556;2022-08-03T12:20:43;5.43;;;2.97;;
35188;SDS011;21762;54.480;18.556;2022-08-03T12:23:11;4.63;;;2.70;;
35188;SDS011;21762;54.480;18.556;2022-08-03T12:25:41;8.48;;;3.03;;
35188;SDS011;21762;54.480;18.556;2022-08-03T12:28:14;7.80;;;2.92;;
35188;SDS011;21762;54.480;18.556;2022-08-03T12:30:45;10.18;;;4.35;;
35188;SDS011;21762;54.480;18.556;2022-08-03T12:33:16;9.10;;;3.10;;
35188;SDS011;21762;54.480;18.556;2022-08-03T12:36:00;6.63;;;2.97;;
35188;SDS011;21762;54.480;18.556;2022-08-03T12:38:31;5.97;;;2.17;;
35188;SDS011;21762;54.480;18.556;2022-08-03T12:41:04;5.78;;;2.33;;
35188;SDS011;21762;54.480;18.556;2022-08-03T12:43:34;5.90;;;2.58;;
35188;SDS011;21762;54.480;18.556;2022-08-03T12:46:06;7.90;;;3.75;;
35188;SDS011;21762;54.480;18.556;2022-08-03T12:48:35;2.88;;;2.30;;
35188;SDS011;21762;54.480;18.556;2022-08-03T12:51:11;5.97;;;2.97;;
35188;SDS011;21762;54.480;18.556;2022-08-03T12:53:43;8.65;;;3.05;;
35188;SDS011;21762;54.480;18.556;2022-08-03T12:56:18;8.30;;;2.90;;
35188;SDS011;21762;54.480;18.556;2022-08-03T12:58:47;4.60;;;2.70;;
35188;SDS011;21762;54.480;18.556;2022-08-03T13:01:15;5.82;;;3.08;;
35188;SDS011;21762;54.480;18.556;2022-08-03T13:03:45;5.15;;;2.40;;
35188;SDS011;21762;54.480;18.556;2022-08-03T13:06:16;6.78;;;2.35;;
35188;SDS011;21762;54.480;18.556;2022-08-03T13:08:45;6.38;;;3.17;;
35188;SDS011;21762;54.480;18.556;2022-08-03T13:11:20;5.93;;;2.63;;
35188;SDS011;21762;54.480;18.556;2022-08-03T13:13:51;8.50;;;2.55;;
35188;SDS011;21762;54.480;18.556;2022-08-03T13:16:20;5.82;;;2.47;;
35188;SDS011;21762;54.480;18.556;2022-08-03T13:18:50;5.30;;;2.80;;
35188;SDS011;21762;54.480;18.556;2022-08-03T13:21:20;7.35;;;2.85;;
35188;SDS011;21762;54.480;18.556;2022-08-03T13:23:49;6.15;;;2.60;;
35188;SDS011;21762;54.480;18.556;2022-08-03T13:26:17;7.35;;;2.90;;
35188;SDS011;21762;54.480;18.556;2022-08-03T13:28:45;9.23;;;2.70;;
35188;SDS011;21762;54.480;18.556;2022-08-03T13:31:13;6.70;;;2.88;;
35188;SDS011;21762;54.480;18.556;2022-08-03T13:33:41;5.22;;;2.30;;
35188;SDS011;21762;54.480;18.556;2022-08-03T13:36:09;2.85;;;2.30;;
35188;SDS011;21762;54.480;18.556;2022-08-03T13:38:39;6.97;;;2.60;;
35188;SDS011;21762;54.480;18.556;2022-08-03T13:41:07;11.05;;;2.35;;
35188;SDS011;21762;54.480;18.556;2022-08-03T13:43:35;5.53;;;2.55;;
35188;SDS011;21762;54.480;18.556;2022-08-03T13:46:04;4.45;;;2.50;;
35188;SDS011;21762;54.480;18.556;2022-08-03T13:48:32;7.13;;;2.40;;
35188;SDS011;21762;54.480;18.556;2022-08-03T13:51:00;4.50;;;2.38;;
35188;SDS011;21762;54.480;18.556;2022-08-03T13:53:30;10.65;;;2.72;;
35188;SDS011;21762;54.480;18.556;2022-08-03T13:56:02;5.72;;;2.38;;
35188;SDS011;21762;54.480;18.556;2022-08-03T13:58:31;7.88;;;2.42;;
35188;SDS011;21762;54.480;18.556;2022-08-03T14:00:59;8.05;;;2.40;;
35188;SDS011;21762;54.480;18.556;2022-08-03T14:03:27;3.85;;;2.20;;
35188;SDS011;21762;54.480;18.556;2022-08-03T14:05:55;2.75;;;2.53;;
35188;SDS011;21762;54.480;18.556;2022-08-03T14:08:23;2.50;;;2.20;;
35188;SDS011;21762;54.480;18.556;2022-08-03T14:10:52;3.03;;;2.45;;
35188;SDS011;21762;54.480;18.556;2022-08-03T14:13:22;4.85;;;2.60;;
35188;SDS011;21762;54.480;18.556;2022-08-03T14:15:50;5.97;;;2.65;;
35188;SDS011;21762;54.480;18.556;2022-08-03T14:18:19;6.32;;;2.28;;
35188;SDS011;21762;54.480;18.556;2022-08-03T14:20:47;4.78;;;2.60;;
35188;SDS011;21762;54.480;18.556;2022-08-03T14:23:17;5.45;;;2.55;;
35188;SDS011;21762;54.480;18.556;2022-08-03T14:25:45;7.55;;;3.17;;
35188;SDS011;21762;54.480;18.556;2022-08-03T14:28:13;4.20;;;2.30;;
35188;SDS011;21762;54.480;18.556;2022-08-03T14:30:43;6.82;;;2.15;;
35188;SDS011;21762;54.480;18.556;2022-08-03T14:33:11;13.48;;;7.90;;
35188;SDS011;21762;54.480;18.556;2022-08-03T14:35:39;4.85;;;3.35;;
35188;SDS011;21762;54.480;18.556;2022-08-03T14:38:07;6.28;;;3.00;;
35188;SDS011;21762;54.480;18.556;2022-08-03T14:40:36;3.42;;;2.33;;
35188;SDS011;21762;54.480;18.556;2022-08-03T14:43:04;4.50;;;2.35;;
35188;SDS011;21762;54.480;18.556;2022-08-03T14:45:32;10.70;;;2.70;;
35188;SDS011;21762;54.480;18.556;2022-08-03T14:48:02;5.00;;;2.92;;
35188;SDS011;21762;54.480;18.556;2022-08-03T14:50:30;5.07;;;2.15;;
35188;SDS011;21762;54.480;18.556;2022-08-03T14:53:06;6.07;;;2.40;;
35188;SDS011;21762;54.480;18.556;2022-08-03T14:55:34;3.35;;;2.30;;
35188;SDS011;21762;54.480;18.556;2022-08-03T14:58:02;6.40;;;2.42;;
35188;SDS011;21762;54.480;18.556;2022-08-03T15:00:32;3.58;;;2.25;;
35188;SDS011;21762;54.480;18.556;2022-08-03T15:03:03;4.65;;;2.10;;
35188;SDS011;21762;54.480;18.556;2022-08-03T15:05:31;9.65;;;2.45;;
35188;SDS011;21762;54.480;18.556;2022-08-03T15:08:00;3.08;;;2.00;;